createdAt,value
2016-07-16T00:00:30.577Z,0
2016-07-16T00:01:30.483Z,0
2016-07-16T00:02:30.933Z,0
2016-07-16T00:03:30.464Z,0
2016-07-16T00:04:30.473Z,0
2016-07-16T00:05:30.894Z,0
2016-07-16T00:06:30.502Z,0
2016-07-16T00:07:30.714Z,0
2016-07-16T00:08:30.704Z,0
2016-07-16T00:09:30.639Z,0
2016-07-16T00:10:30.683Z,0
2016-07-16T00:11:30.643Z,0
2016-07-16T00:12:30.485Z,0
2016-07-16T00:13:30.456Z,0
2016-07-16T00:14:30.483Z,0
2016-07-16T00:15:30.632Z,0
2016-07-16T00:16:30.636Z,0
2016-07-16T00:17:30.605Z,0
2016-07-16T00:18:30.662Z,0
2016-07-16T00:19:30.619Z,0
2016-07-16T00:20:30.481Z,0
2016-07-16T00:21:30.616Z,0
2016-07-16T00:22:30.474Z,0
2016-07-16T00:23:30.523Z,0
2016-07-16T00:24:30.535Z,0
2016-07-16T00:25:30.576Z,0
2016-07-16T00:26:31.874Z,0
2016-07-16T00:27:30.497Z,0
2016-07-16T00:28:30.454Z,0
2016-07-16T00:29:30.477Z,0
2016-07-16T00:30:30.454Z,0
2016-07-16T00:31:30.479Z,0
2016-07-16T00:32:30.857Z,0
2016-07-16T00:33:30.482Z,0
2016-07-16T00:34:30.585Z,0
2016-07-16T00:35:30.761Z,0
2016-07-16T00:36:30.596Z,0
2016-07-16T00:37:30.579Z,0
2016-07-16T00:38:30.515Z,0
2016-07-16T00:39:30.497Z,0
2016-07-16T00:40:30.735Z,0
2016-07-16T00:41:30.547Z,0
2016-07-16T00:42:30.501Z,0
2016-07-16T00:43:31.460Z,0
2016-07-16T00:44:30.517Z,0
2016-07-16T00:45:30.689Z,0
2016-07-16T00:46:30.663Z,0
2016-07-16T00:47:30.609Z,0
2016-07-16T00:48:30.474Z,0
2016-07-16T00:49:30.595Z,0
2016-07-16T00:50:30.867Z,0
2016-07-16T00:51:30.494Z,0
2016-07-16T00:52:30.643Z,0
2016-07-16T00:53:30.490Z,0
2016-07-16T00:54:30.489Z,0
2016-07-16T00:55:30.907Z,0
2016-07-16T00:56:30.670Z,0
2016-07-16T00:57:30.453Z,0
2016-07-16T00:58:30.536Z,0
2016-07-16T00:59:30.627Z,0
2016-07-16T01:00:30.524Z,0
2016-07-16T01:01:31.606Z,0
2016-07-16T01:02:30.486Z,0
2016-07-16T01:03:30.580Z,0
2016-07-16T01:04:30.705Z,0
2016-07-16T01:05:31.078Z,0
2016-07-16T01:06:30.844Z,0
2016-07-16T01:07:30.503Z,0
2016-07-16T01:08:30.656Z,0
2016-07-16T01:09:30.607Z,0
2016-07-16T01:10:30.516Z,0
2016-07-16T01:11:30.492Z,0
2016-07-16T01:12:30.546Z,0
2016-07-16T01:13:30.530Z,0
2016-07-16T01:14:30.546Z,0
2016-07-16T01:15:30.518Z,0
2016-07-16T01:16:30.495Z,0
2016-07-16T01:17:30.543Z,0
2016-07-16T01:18:30.510Z,0
2016-07-16T01:19:30.511Z,0
2016-07-16T01:20:30.620Z,0
2016-07-16T01:21:30.552Z,0
2016-07-16T01:22:30.548Z,0
2016-07-16T01:23:30.538Z,0
2016-07-16T01:24:30.563Z,0
2016-07-16T01:25:30.542Z,0
2016-07-16T01:26:30.561Z,0
2016-07-16T01:27:30.555Z,0
2016-07-16T01:28:30.565Z,0
2016-07-16T01:29:30.535Z,0
2016-07-16T01:30:30.534Z,0
2016-07-16T01:31:30.546Z,0
2016-07-16T01:32:30.567Z,0
2016-07-16T01:33:30.544Z,0
2016-07-16T01:34:30.562Z,0
2016-07-16T01:35:30.546Z,0
2016-07-16T01:36:30.515Z,0
2016-07-16T01:37:30.566Z,0
2016-07-16T01:38:30.559Z,0
2016-07-16T01:39:30.549Z,0
2016-07-16T01:40:30.554Z,0
2016-07-16T01:41:30.580Z,0
2016-07-16T01:42:30.547Z,0
2016-07-16T01:43:30.565Z,0
2016-07-16T01:44:30.558Z,0
2016-07-16T01:45:30.559Z,0
2016-07-16T01:46:30.568Z,0
2016-07-16T01:47:30.559Z,0
2016-07-16T01:48:31.241Z,0
2016-07-16T01:49:30.580Z,0
2016-07-16T01:50:30.576Z,0
2016-07-16T01:51:30.579Z,0
2016-07-16T01:52:30.555Z,0
2016-07-16T01:53:30.553Z,0
2016-07-16T01:54:30.563Z,0
2016-07-16T01:55:30.537Z,0
2016-07-16T01:56:31.267Z,0
2016-07-16T01:57:30.544Z,0
2016-07-16T01:58:30.548Z,0
2016-07-16T01:59:30.551Z,0
2016-07-16T02:00:30.559Z,0
2016-07-16T02:01:31.122Z,0
2016-07-16T02:02:30.557Z,0
2016-07-16T02:03:30.580Z,0
2016-07-16T02:04:30.586Z,0
2016-07-16T02:05:30.551Z,0
2016-07-16T02:06:30.574Z,0
2016-07-16T02:07:30.556Z,0
2016-07-16T02:08:30.600Z,0
2016-07-16T02:09:30.569Z,0
2016-07-16T02:10:30.586Z,0
2016-07-16T02:11:30.581Z,0
2016-07-16T02:12:30.611Z,0
2016-07-16T02:13:30.607Z,0
2016-07-16T02:14:30.556Z,0
2016-07-16T02:15:30.574Z,0
2016-07-16T02:16:30.560Z,0
2016-07-16T02:17:30.587Z,0
2016-07-16T02:18:30.592Z,0
2016-07-16T02:19:30.579Z,0
2016-07-16T02:20:30.591Z,0
2016-07-16T02:21:31.184Z,0
2016-07-16T02:22:30.620Z,0
2016-07-16T02:23:30.579Z,0
2016-07-16T02:24:30.631Z,0
2016-07-16T02:25:30.619Z,0
2016-07-16T02:26:30.662Z,0
2016-07-16T02:27:30.709Z,0
2016-07-16T02:28:30.627Z,0
2016-07-16T02:29:30.590Z,0
2016-07-16T02:30:30.598Z,0
2016-07-16T02:31:30.694Z,0
2016-07-16T02:32:30.581Z,0
2016-07-16T02:33:30.589Z,0
2016-07-16T02:34:30.606Z,0
2016-07-16T02:35:30.569Z,0
2016-07-16T02:36:30.571Z,0
2016-07-16T02:37:30.607Z,0
2016-07-16T02:38:30.591Z,0
2016-07-16T02:39:30.583Z,0
2016-07-16T02:40:30.618Z,0
2016-07-16T02:41:30.603Z,0
2016-07-16T02:42:30.593Z,0
2016-07-16T02:43:30.585Z,0
2016-07-16T02:44:30.583Z,0
2016-07-16T02:45:30.568Z,0
2016-07-16T02:46:30.591Z,0
2016-07-16T02:47:30.612Z,0
2016-07-16T02:48:30.599Z,0
2016-07-16T02:49:30.602Z,0
2016-07-16T02:50:30.642Z,0
2016-07-16T02:51:30.597Z,4
2016-07-16T02:52:30.621Z,4
2016-07-16T02:53:30.604Z,0
2016-07-16T02:54:30.611Z,0
2016-07-16T02:55:30.609Z,0
2016-07-16T02:56:30.583Z,4
2016-07-16T02:57:30.625Z,4
2016-07-16T02:58:30.593Z,4
2016-07-16T02:59:30.589Z,4
2016-07-16T03:00:30.615Z,4
2016-07-16T03:01:30.583Z,8
2016-07-16T03:02:30.619Z,4
2016-07-16T03:03:30.609Z,8
2016-07-16T03:04:30.601Z,8
2016-07-16T03:05:30.644Z,8
2016-07-16T03:06:30.619Z,8
2016-07-16T03:07:30.590Z,12
2016-07-16T03:08:30.613Z,12
2016-07-16T03:09:30.617Z,12
2016-07-16T03:10:30.628Z,16
2016-07-16T03:11:30.625Z,20
2016-07-16T03:12:30.616Z,20
2016-07-16T03:13:30.582Z,24
2016-07-16T03:14:30.610Z,24
2016-07-16T03:15:30.615Z,24
2016-07-16T03:16:30.599Z,32
2016-07-16T03:17:30.615Z,32
2016-07-16T03:18:30.616Z,36
2016-07-16T03:19:30.612Z,48
2016-07-16T03:20:30.609Z,52
2016-07-16T03:21:30.613Z,60
2016-07-16T03:22:30.632Z,68
2016-07-16T03:23:30.616Z,84
2016-07-16T03:24:30.618Z,96
2016-07-16T03:25:30.672Z,104
2016-07-16T03:26:31.275Z,112
2016-07-16T03:27:30.736Z,116
2016-07-16T03:28:30.680Z,116
2016-07-16T03:29:30.643Z,116
2016-07-16T03:30:30.664Z,120
2016-07-16T03:31:30.681Z,128
2016-07-16T03:32:30.675Z,136
2016-07-16T03:33:30.655Z,156
2016-07-16T03:34:30.645Z,172
2016-07-16T03:35:30.634Z,192
2016-07-16T03:36:30.652Z,212
2016-07-16T03:37:30.705Z,232
2016-07-16T03:38:30.675Z,256
2016-07-16T03:39:30.661Z,280
2016-07-16T03:40:30.670Z,312
2016-07-16T03:41:30.676Z,340
2016-07-16T03:42:31.105Z,368
2016-07-16T03:43:30.656Z,416
2016-07-16T03:44:30.664Z,464
2016-07-16T03:45:30.644Z,504
2016-07-16T03:46:30.650Z,544
2016-07-16T03:47:30.643Z,584
2016-07-16T03:48:30.646Z,608
2016-07-16T03:49:30.610Z,632
2016-07-16T03:50:30.615Z,656
2016-07-16T03:51:30.619Z,676
2016-07-16T03:52:30.646Z,712
2016-07-16T03:53:30.682Z,772
2016-07-16T03:54:30.632Z,852
2016-07-16T03:55:30.649Z,924
2016-07-16T03:56:30.647Z,960
2016-07-16T03:57:30.653Z,1008
2016-07-16T03:58:30.703Z,1052
2016-07-16T03:59:30.647Z,1100
2016-07-16T04:00:30.655Z,1172
2016-07-16T04:01:30.648Z,1256
2016-07-16T04:02:30.626Z,1340
2016-07-16T04:03:30.656Z,1424
2016-07-16T04:04:30.672Z,1516
2016-07-16T04:05:30.667Z,1612
2016-07-16T04:06:30.674Z,1704
2016-07-16T04:07:30.646Z,1768
2016-07-16T04:08:31.395Z,1772
2016-07-16T04:09:30.648Z,1692
2016-07-16T04:10:30.642Z,1556
2016-07-16T04:11:30.678Z,1428
2016-07-16T04:12:30.662Z,1332
2016-07-16T04:13:30.680Z,1292
2016-07-16T04:14:30.672Z,1288
2016-07-16T04:15:30.691Z,1288
2016-07-16T04:16:30.692Z,1284
2016-07-16T04:17:30.680Z,1248
2016-07-16T04:18:30.673Z,1196
2016-07-16T04:19:30.671Z,1148
2016-07-16T04:20:30.725Z,1096
2016-07-16T04:21:30.687Z,1052
2016-07-16T04:22:30.694Z,1040
2016-07-16T04:23:30.749Z,1064
2016-07-16T04:24:30.677Z,1108
2016-07-16T04:25:30.685Z,1140
2016-07-16T04:26:30.691Z,1148
2016-07-16T04:27:30.690Z,1140
2016-07-16T04:28:30.648Z,1124
2016-07-16T04:29:30.703Z,1120
2016-07-16T04:30:30.687Z,1128
2016-07-16T04:31:30.672Z,1172
2016-07-16T04:32:30.696Z,1252
2016-07-16T04:33:30.676Z,1328
2016-07-16T04:34:30.698Z,1360
2016-07-16T04:35:30.661Z,1344
2016-07-16T04:36:30.677Z,1316
2016-07-16T04:37:30.693Z,1284
2016-07-16T04:38:30.707Z,1248
2016-07-16T04:39:30.708Z,1220
2016-07-16T04:40:30.723Z,1188
2016-07-16T04:41:30.695Z,1152
2016-07-16T04:42:30.716Z,1128
2016-07-16T04:43:30.738Z,1128
2016-07-16T04:44:30.764Z,1148
2016-07-16T04:45:30.750Z,1200
2016-07-16T04:46:30.739Z,1252
2016-07-16T04:47:30.711Z,1284
2016-07-16T04:48:30.680Z,1312
2016-07-16T04:49:30.712Z,1360
2016-07-16T04:50:30.750Z,1396
2016-07-16T04:51:30.701Z,1384
2016-07-16T04:52:30.680Z,1340
2016-07-16T04:53:30.680Z,1320
2016-07-16T04:54:30.719Z,1324
2016-07-16T04:55:30.710Z,1364
2016-07-16T04:56:30.777Z,1428
2016-07-16T04:57:30.709Z,1556
2016-07-16T04:58:30.710Z,1740
2016-07-16T04:59:30.697Z,1912
2016-07-16T05:00:30.687Z,2012
2016-07-16T05:01:30.694Z,2048
2016-07-16T05:02:30.710Z,2096
2016-07-16T05:03:30.737Z,2188
2016-07-16T05:04:30.710Z,2352
2016-07-16T05:05:30.691Z,2572
2016-07-16T05:06:30.731Z,2824
2016-07-16T05:07:30.741Z,3028
2016-07-16T05:08:30.713Z,3232
2016-07-16T05:09:30.709Z,3520
2016-07-16T05:10:30.777Z,3960
2016-07-16T05:11:30.742Z,4584
2016-07-16T05:12:30.739Z,5376
2016-07-16T05:13:30.740Z,6144
2016-07-16T05:14:30.765Z,6472
2016-07-16T05:15:30.741Z,6380
2016-07-16T05:16:30.737Z,6220
2016-07-16T05:17:30.771Z,6180
2016-07-16T05:18:30.751Z,6172
2016-07-16T05:19:30.758Z,6168
2016-07-16T05:20:30.765Z,6256
2016-07-16T05:21:30.739Z,6368
2016-07-16T05:22:30.754Z,6552
2016-07-16T05:23:30.802Z,6836
2016-07-16T05:24:30.765Z,7132
2016-07-16T05:25:30.710Z,7148
2016-07-16T05:26:30.741Z,6908
2016-07-16T05:27:30.714Z,6688
2016-07-16T05:28:30.712Z,6672
2016-07-16T05:29:30.739Z,6808
2016-07-16T05:30:30.730Z,6924
2016-07-16T05:31:30.729Z,7012
2016-07-16T05:32:30.735Z,7012
2016-07-16T05:33:30.704Z,6732
2016-07-16T05:34:30.710Z,6404
2016-07-16T05:35:30.700Z,6140
2016-07-16T05:36:30.721Z,5964
2016-07-16T05:37:30.712Z,5792
2016-07-16T05:38:30.746Z,5564
2016-07-16T05:39:30.742Z,5268
2016-07-16T05:40:30.804Z,4876
2016-07-16T05:41:30.772Z,4468
2016-07-16T05:42:30.748Z,4184
2016-07-16T05:43:30.756Z,4040
2016-07-16T05:44:30.749Z,3896
2016-07-16T05:45:30.772Z,3760
2016-07-16T05:46:30.775Z,3784
2016-07-16T05:47:30.762Z,4076
2016-07-16T05:48:30.748Z,4432
2016-07-16T05:49:30.753Z,4636
2016-07-16T05:50:30.780Z,4580
2016-07-16T05:51:30.761Z,4328
2016-07-16T05:52:30.778Z,4032
2016-07-16T05:53:30.774Z,3864
2016-07-16T05:54:30.828Z,3896
2016-07-16T05:55:30.742Z,4024
2016-07-16T05:56:31.314Z,4164
2016-07-16T05:57:30.750Z,4284
2016-07-16T05:58:30.778Z,4388
2016-07-16T05:59:30.783Z,4484
2016-07-16T06:00:30.745Z,4532
2016-07-16T06:01:30.787Z,4584
2016-07-16T06:02:30.747Z,4480
2016-07-16T06:03:30.772Z,4224
2016-07-16T06:04:30.742Z,3964
2016-07-16T06:05:30.802Z,3852
2016-07-16T06:06:30.796Z,3952
2016-07-16T06:07:30.804Z,4392
2016-07-16T06:08:30.811Z,5008
2016-07-16T06:09:30.833Z,5696
2016-07-16T06:10:30.791Z,6336
2016-07-16T06:11:30.766Z,7004
2016-07-16T06:12:30.819Z,7152
2016-07-16T06:13:31.321Z,7196
2016-07-16T06:14:30.816Z,7492
2016-07-16T06:15:30.772Z,7804
2016-07-16T06:16:30.817Z,8052
2016-07-16T06:17:30.825Z,8168
2016-07-16T06:18:30.799Z,8272
2016-07-16T06:19:30.776Z,8408
2016-07-16T06:20:30.783Z,8580
2016-07-16T06:21:30.800Z,8788
2016-07-16T06:22:30.775Z,9024
2016-07-16T06:23:30.774Z,9440
2016-07-16T06:24:30.794Z,9820
2016-07-16T06:25:30.748Z,9928
2016-07-16T06:26:30.760Z,10016
2016-07-16T06:27:30.789Z,10236
2016-07-16T06:28:30.819Z,10860
2016-07-16T06:29:30.774Z,11596
2016-07-16T06:30:30.782Z,12160
2016-07-16T06:31:30.875Z,12836
2016-07-16T06:32:30.807Z,13640
2016-07-16T06:33:30.839Z,14120
2016-07-16T06:34:30.766Z,14208
2016-07-16T06:35:30.828Z,13436
2016-07-16T06:36:30.780Z,11488
2016-07-16T06:37:30.807Z,9772
2016-07-16T06:38:30.984Z,9544
2016-07-16T06:39:30.797Z,9732
2016-07-16T06:40:30.835Z,9612
2016-07-16T06:41:30.824Z,9164
2016-07-16T06:42:30.805Z,8616
2016-07-16T06:43:30.835Z,8116
2016-07-16T06:44:30.805Z,7576
2016-07-16T06:45:30.801Z,6732
2016-07-16T06:46:30.809Z,5636
2016-07-16T06:47:30.841Z,4976
2016-07-16T06:48:30.799Z,5096
2016-07-16T06:49:30.825Z,5444
2016-07-16T06:50:30.836Z,5364
2016-07-16T06:51:30.825Z,5040
2016-07-16T06:52:30.835Z,5136
2016-07-16T06:53:30.842Z,5732
2016-07-16T06:54:30.787Z,6500
2016-07-16T06:55:31.045Z,7080
2016-07-16T06:56:31.022Z,7444
2016-07-16T06:57:30.826Z,7840
2016-07-16T06:58:30.835Z,8148
2016-07-16T06:59:30.838Z,8060
2016-07-16T07:00:30.839Z,7756
2016-07-16T07:01:30.830Z,7884
2016-07-16T07:02:30.809Z,8132
2016-07-16T07:03:30.841Z,8140
2016-07-16T07:04:30.878Z,8160
2016-07-16T07:05:31.087Z,8096
2016-07-16T07:06:31.216Z,8060
2016-07-16T07:07:30.868Z,8220
2016-07-16T07:08:30.883Z,8396
2016-07-16T07:09:30.861Z,8496
2016-07-16T07:10:30.837Z,8492
2016-07-16T07:11:30.837Z,8308
2016-07-16T07:12:30.837Z,8252
2016-07-16T07:13:30.887Z,7860
2016-07-16T07:14:30.866Z,7576
2016-07-16T07:15:30.872Z,7460
2016-07-16T07:16:30.894Z,7808
2016-07-16T07:17:30.868Z,8440
2016-07-16T07:18:30.903Z,8160
2016-07-16T07:19:30.899Z,7564
2016-07-16T07:20:30.831Z,7168
2016-07-16T07:21:31.526Z,6872
2016-07-16T07:22:30.841Z,6596
2016-07-16T07:23:31.180Z,6468
2016-07-16T07:24:31.174Z,6480
2016-07-16T07:25:31.461Z,6380
2016-07-16T07:26:30.875Z,6500
2016-07-16T07:27:30.869Z,6620
2016-07-16T07:28:30.850Z,6828
2016-07-16T07:29:30.839Z,7084
2016-07-16T07:30:30.883Z,7080
2016-07-16T07:31:30.848Z,7076
2016-07-16T07:32:31.287Z,6796
2016-07-16T07:33:30.870Z,6480
2016-07-16T07:34:30.868Z,6528
2016-07-16T07:35:30.907Z,6732
2016-07-16T07:36:30.874Z,7080
2016-07-16T07:37:31.096Z,7380
2016-07-16T07:38:30.867Z,7388
2016-07-16T07:39:30.873Z,7328
2016-07-16T07:40:30.870Z,7312
2016-07-16T07:41:30.889Z,7292
2016-07-16T07:42:30.896Z,7280
2016-07-16T07:43:30.915Z,7472
2016-07-16T07:44:30.874Z,7900
2016-07-16T07:45:31.015Z,8100
2016-07-16T07:46:30.931Z,8320
2016-07-16T07:47:30.900Z,8252
2016-07-16T07:48:30.897Z,7888
2016-07-16T07:49:30.899Z,7460
2016-07-16T07:50:30.929Z,7500
2016-07-16T07:51:30.909Z,8080
2016-07-16T07:52:30.878Z,7980
2016-07-16T07:53:30.954Z,8112
2016-07-16T07:54:31.204Z,8188
2016-07-16T07:55:31.114Z,8188
2016-07-16T07:56:30.975Z,8552
2016-07-16T07:57:30.871Z,8664
2016-07-16T07:58:31.597Z,8928
2016-07-16T07:59:31.049Z,9724
2016-07-16T08:00:31.008Z,9972
2016-07-16T08:01:31.488Z,10112
2016-07-16T08:02:31.231Z,10144
2016-07-16T08:03:30.868Z,9780
2016-07-16T08:04:31.364Z,9320
2016-07-16T08:05:30.942Z,9608
2016-07-16T08:06:30.875Z,10272
2016-07-16T08:07:31.029Z,11544
2016-07-16T08:08:31.693Z,12816
2016-07-16T08:09:31.851Z,14228
2016-07-16T08:10:30.938Z,16636
2016-07-16T08:11:31.257Z,17688
2016-07-16T08:12:30.992Z,16616
2016-07-16T08:13:30.931Z,16284
2016-07-16T08:14:30.933Z,15624
2016-07-16T08:15:30.911Z,14324
2016-07-16T08:16:30.950Z,13524
2016-07-16T08:17:32.067Z,13984
2016-07-16T08:18:30.948Z,14508
2016-07-16T08:19:30.931Z,13720
2016-07-16T08:20:30.976Z,12592
2016-07-16T08:21:30.945Z,11916
2016-07-16T08:22:30.888Z,11252
2016-07-16T08:23:30.925Z,10364
2016-07-16T08:24:30.935Z,11032
2016-07-16T08:25:30.935Z,10200
2016-07-16T08:26:30.906Z,10552
2016-07-16T08:27:30.936Z,11936
2016-07-16T08:28:30.962Z,11596
2016-07-16T08:29:30.913Z,10812
2016-07-16T08:30:30.920Z,10004
2016-07-16T08:31:30.906Z,8752
2016-07-16T08:32:30.905Z,7796
2016-07-16T08:33:30.917Z,8316
2016-07-16T08:34:30.911Z,10500
2016-07-16T08:35:30.998Z,13048
2016-07-16T08:36:30.928Z,13244
2016-07-16T08:37:30.967Z,13796
2016-07-16T08:38:30.938Z,13532
2016-07-16T08:39:31.053Z,12904
2016-07-16T08:40:31.136Z,11148
2016-07-16T08:41:31.068Z,9356
2016-07-16T08:42:31.171Z,8420
2016-07-16T08:43:31.004Z,9396
2016-07-16T08:44:31.601Z,11900
2016-07-16T08:45:31.005Z,12696
2016-07-16T08:46:31.065Z,12988
2016-07-16T08:47:31.322Z,12856
2016-07-16T08:48:31.085Z,14636
2016-07-16T08:49:30.932Z,16368
2016-07-16T08:50:31.021Z,14744
2016-07-16T08:51:30.921Z,13580
2016-07-16T08:52:30.936Z,13292
2016-07-16T08:53:31.178Z,12228
2016-07-16T08:54:30.964Z,12956
2016-07-16T08:55:31.981Z,14628
2016-07-16T08:56:30.980Z,14072
2016-07-16T08:57:32.304Z,13632
2016-07-16T08:58:31.027Z,13348
2016-07-16T08:59:30.964Z,13088
2016-07-16T09:00:31.087Z,14060
2016-07-16T09:01:31.002Z,14264
2016-07-16T09:02:30.993Z,15320
2016-07-16T09:03:30.968Z,16000
2016-07-16T09:04:31.332Z,16608
2016-07-16T09:05:30.981Z,16928
2016-07-16T09:06:32.083Z,16644
2016-07-16T09:07:31.833Z,17100
2016-07-16T09:08:31.407Z,16812
2016-07-16T09:09:31.087Z,16228
2016-07-16T09:10:31.180Z,17060
2016-07-16T09:11:30.994Z,16920
2016-07-16T09:12:30.997Z,16416
2016-07-16T09:13:31.008Z,15788
2016-07-16T09:14:31.002Z,14908
2016-07-16T09:15:31.115Z,15992
2016-07-16T09:16:31.373Z,16380
2016-07-16T09:17:30.947Z,17336
2016-07-16T09:18:30.969Z,19264
2016-07-16T09:19:30.966Z,20128
2016-07-16T09:20:30.974Z,20384
2016-07-16T09:21:30.995Z,19328
2016-07-16T09:22:31.083Z,18020
2016-07-16T09:23:31.032Z,17652
2016-07-16T09:24:30.991Z,16392
2016-07-16T09:25:30.935Z,15784
2016-07-16T09:26:31.350Z,15368
2016-07-16T09:27:30.969Z,16244
2016-07-16T09:28:30.966Z,16724
2016-07-16T09:29:31.188Z,16712
2016-07-16T09:30:31.067Z,16148
2016-07-16T09:31:31.082Z,15896
2016-07-16T09:32:30.977Z,14248
2016-07-16T09:33:30.950Z,13744
2016-07-16T09:34:31.066Z,13248
2016-07-16T09:35:31.073Z,13560
2016-07-16T09:36:31.021Z,13224
2016-07-16T09:37:31.404Z,13204
2016-07-16T09:38:31.087Z,14232
2016-07-16T09:39:31.038Z,14292
2016-07-16T09:40:31.038Z,13712
2016-07-16T09:41:31.040Z,13512
2016-07-16T09:42:31.798Z,11928
2016-07-16T09:43:31.000Z,10980
2016-07-16T09:44:31.035Z,10700
2016-07-16T09:45:31.009Z,10888
2016-07-16T09:46:31.700Z,11364
2016-07-16T09:47:31.064Z,11676
2016-07-16T09:48:30.989Z,11980
2016-07-16T09:49:31.029Z,12020
2016-07-16T09:50:31.013Z,13076
2016-07-16T09:51:31.012Z,13352
2016-07-16T09:52:30.978Z,13112
2016-07-16T09:53:30.958Z,13408
2016-07-16T09:54:31.004Z,14448
2016-07-16T09:55:31.005Z,16396
2016-07-16T09:56:31.070Z,18184
2016-07-16T09:57:31.009Z,20128
2016-07-16T09:58:31.988Z,21824
2016-07-16T09:59:30.997Z,22400
2016-07-16T10:00:31.054Z,20000
2016-07-16T10:01:31.655Z,20064
2016-07-16T10:02:31.598Z,19520
2016-07-16T10:03:31.046Z,17716
2016-07-16T10:04:31.008Z,17912
2016-07-16T10:05:31.074Z,18688
2016-07-16T10:06:31.080Z,19520
2016-07-16T10:07:31.059Z,20768
2016-07-16T10:08:31.081Z,21632
2016-07-16T10:09:31.089Z,22048
2016-07-16T10:10:31.068Z,22240
2016-07-16T10:11:31.001Z,22880
2016-07-16T10:12:31.057Z,20736
2016-07-16T10:13:31.034Z,19872
2016-07-16T10:14:31.058Z,20832
2016-07-16T10:15:31.098Z,22528
2016-07-16T10:16:31.039Z,24672
2016-07-16T10:17:31.090Z,26624
2016-07-16T10:18:31.059Z,32896
2016-07-16T10:19:31.025Z,34656
2016-07-16T10:20:31.056Z,33760
2016-07-16T10:21:31.035Z,30400
2016-07-16T10:22:31.011Z,28352
2016-07-16T10:23:31.029Z,26144
2016-07-16T10:24:31.022Z,22688
2016-07-16T10:25:31.204Z,21920
2016-07-16T10:26:31.056Z,22336
2016-07-16T10:27:31.098Z,22336
2016-07-16T10:28:31.078Z,21312
2016-07-16T10:29:31.040Z,20032
2016-07-16T10:30:31.107Z,19808
2016-07-16T10:31:31.052Z,18848
2016-07-16T10:32:31.050Z,18392
2016-07-16T10:33:31.128Z,17444
2016-07-16T10:34:31.067Z,15716
2016-07-16T10:35:31.084Z,15656
2016-07-16T10:36:31.072Z,17496
2016-07-16T10:37:31.052Z,19744
2016-07-16T10:38:31.052Z,21888
2016-07-16T10:39:31.071Z,23616
2016-07-16T10:40:31.102Z,23136
2016-07-16T10:41:31.090Z,22496
2016-07-16T10:42:31.127Z,22496
2016-07-16T10:43:31.029Z,21120
2016-07-16T10:44:31.052Z,19552
2016-07-16T10:45:31.117Z,19744
2016-07-16T10:46:31.082Z,20992
2016-07-16T10:47:31.032Z,21376
2016-07-16T10:48:31.066Z,22368
2016-07-16T10:49:31.040Z,24000
2016-07-16T10:50:31.096Z,25280
2016-07-16T10:51:31.090Z,25024
2016-07-16T10:52:31.064Z,23968
2016-07-16T10:53:31.087Z,22272
2016-07-16T10:54:31.110Z,21216
2016-07-16T10:55:31.057Z,21120
2016-07-16T10:56:31.471Z,20320
2016-07-16T10:57:31.075Z,20032
2016-07-16T10:58:31.165Z,20800
2016-07-16T10:59:31.156Z,21376
2016-07-16T11:00:32.095Z,21024
2016-07-16T11:01:31.313Z,21120
2016-07-16T11:02:31.438Z,21120
2016-07-16T11:03:31.109Z,20192
2016-07-16T11:04:31.113Z,20640
2016-07-16T11:05:31.073Z,21152
2016-07-16T11:06:31.433Z,22752
2016-07-16T11:07:31.241Z,23616
2016-07-16T11:08:31.345Z,22784
2016-07-16T11:09:31.046Z,22976
2016-07-16T11:10:31.081Z,22144
2016-07-16T11:11:31.369Z,22336
2016-07-16T11:12:31.373Z,22912
2016-07-16T11:13:31.273Z,23296
2016-07-16T11:14:31.111Z,25760
2016-07-16T11:15:31.217Z,25824
2016-07-16T11:16:31.093Z,25600
2016-07-16T11:17:31.066Z,24064
2016-07-16T11:18:31.115Z,23520
2016-07-16T11:19:31.174Z,22848
2016-07-16T11:20:31.196Z,21440
2016-07-16T11:21:31.102Z,20256
2016-07-16T11:22:31.169Z,17768
2016-07-16T11:23:31.173Z,17520
2016-07-16T11:24:31.156Z,18348
2016-07-16T11:25:31.672Z,17400
2016-07-16T11:26:31.205Z,17816
2016-07-16T11:27:31.091Z,17512
2016-07-16T11:28:31.198Z,17088
2016-07-16T11:29:31.110Z,15996
2016-07-16T11:30:31.130Z,16392
2016-07-16T11:31:31.229Z,15660
2016-07-16T11:32:31.224Z,13520
2016-07-16T11:33:31.158Z,12352
2016-07-16T11:34:31.119Z,12572
2016-07-16T11:35:31.148Z,13612
2016-07-16T11:36:31.088Z,14468
2016-07-16T11:37:31.155Z,13884
2016-07-16T11:38:31.132Z,13492
2016-07-16T11:39:31.154Z,14152
2016-07-16T11:40:31.538Z,15044
2016-07-16T11:41:31.156Z,15620
2016-07-16T11:42:31.559Z,16732
2016-07-16T11:43:31.129Z,18212
2016-07-16T11:44:31.134Z,17820
2016-07-16T11:45:31.205Z,16364
2016-07-16T11:46:31.174Z,14120
2016-07-16T11:47:31.152Z,13200
2016-07-16T11:48:31.184Z,12972
2016-07-16T11:49:31.094Z,12916
2016-07-16T11:50:31.216Z,12744
2016-07-16T11:51:31.195Z,11584
2016-07-16T11:52:31.126Z,10596
2016-07-16T11:53:31.170Z,10192
2016-07-16T11:54:31.153Z,9984
2016-07-16T11:55:31.157Z,9416
2016-07-16T11:56:31.163Z,9572
2016-07-16T11:57:31.092Z,10092
2016-07-16T11:58:31.217Z,10472
2016-07-16T11:59:31.101Z,11460
2016-07-16T12:00:31.195Z,12444
2016-07-16T12:01:31.267Z,13900
2016-07-16T12:02:31.173Z,14628
2016-07-16T12:03:32.069Z,14812
2016-07-16T12:04:31.149Z,15024
2016-07-16T12:05:31.387Z,17764
2016-07-16T12:06:31.755Z,18204
2016-07-16T12:07:31.249Z,16508
2016-07-16T12:08:31.153Z,14728
2016-07-16T12:09:31.140Z,14180
2016-07-16T12:10:31.388Z,14408
2016-07-16T12:11:31.184Z,14676
2016-07-16T12:12:31.124Z,14436
2016-07-16T12:13:31.198Z,14600
2016-07-16T12:14:31.206Z,13408
2016-07-16T12:15:31.115Z,12824
2016-07-16T12:16:31.278Z,12308
2016-07-16T12:17:31.986Z,12252
2016-07-16T12:18:31.275Z,13472
2016-07-16T12:19:31.207Z,13772
2016-07-16T12:20:31.220Z,13088
2016-07-16T12:21:31.256Z,12812
2016-07-16T12:22:31.154Z,12904
2016-07-16T12:23:32.264Z,13268
2016-07-16T12:24:31.145Z,13624
2016-07-16T12:25:31.256Z,13676
2016-07-16T12:26:31.296Z,13724
2016-07-16T12:27:31.198Z,14512
2016-07-16T12:28:31.222Z,16164
2016-07-16T12:29:31.229Z,16728
2016-07-16T12:30:31.236Z,16724
2016-07-16T12:31:31.173Z,16072
2016-07-16T12:32:31.158Z,15772
2016-07-16T12:33:31.141Z,15020
2016-07-16T12:34:31.145Z,13268
2016-07-16T12:35:31.131Z,11828
2016-07-16T12:36:31.152Z,10976
2016-07-16T12:37:31.277Z,11116
2016-07-16T12:38:31.268Z,10900
2016-07-16T12:39:31.260Z,10124
2016-07-16T12:40:31.168Z,9960
2016-07-16T12:41:31.142Z,10856
2016-07-16T12:42:31.185Z,12552
2016-07-16T12:43:31.187Z,12768
2016-07-16T12:44:31.189Z,12156
2016-07-16T12:45:31.561Z,12724
2016-07-16T12:46:31.424Z,12924
2016-07-16T12:47:31.272Z,14688
2016-07-16T12:48:31.250Z,17376
2016-07-16T12:49:31.189Z,19424
2016-07-16T12:50:31.378Z,19808
2016-07-16T12:51:31.258Z,22240
2016-07-16T12:52:31.237Z,22656
2016-07-16T12:53:31.187Z,21600
2016-07-16T12:54:31.335Z,20704
2016-07-16T12:55:31.335Z,22016
2016-07-16T12:56:31.217Z,24576
2016-07-16T12:57:31.821Z,23200
2016-07-16T12:58:31.328Z,22720
2016-07-16T12:59:31.207Z,23296
2016-07-16T13:00:31.250Z,23264
2016-07-16T13:01:31.308Z,23776
2016-07-16T13:02:31.277Z,23488
2016-07-16T13:03:31.262Z,21472
2016-07-16T13:04:31.255Z,20576
2016-07-16T13:05:31.987Z,21408
2016-07-16T13:06:31.242Z,23232
2016-07-16T13:07:31.249Z,22688
2016-07-16T13:08:31.169Z,22912
2016-07-16T13:09:31.218Z,19648
2016-07-16T13:10:31.219Z,17476
2016-07-16T13:11:31.414Z,16252
2016-07-16T13:12:31.237Z,15424
2016-07-16T13:13:31.310Z,14428
2016-07-16T13:14:31.300Z,13132
2016-07-16T13:15:31.818Z,12184
2016-07-16T13:16:31.235Z,11348
2016-07-16T13:17:31.255Z,15004
2016-07-16T13:18:31.569Z,18012
2016-07-16T13:19:31.219Z,15244
2016-07-16T13:20:31.223Z,14932
2016-07-16T13:21:31.250Z,14684
2016-07-16T13:22:31.247Z,12572
2016-07-16T13:23:31.243Z,12528
2016-07-16T13:24:31.219Z,15088
2016-07-16T13:25:31.230Z,15572
2016-07-16T13:26:31.210Z,15208
2016-07-16T13:27:31.208Z,16016
2016-07-16T13:28:31.317Z,19200